Time;durP1;ratioP1;P1;durP2;ratioP2;P2;SDS_P1;SDS_P2;PMS_P1;PMS_P2;Temp;Humidity;BMP_temperature;BMP_pressure;BME280_temperature;BME280_humidity;BME280_pressure;Samples;Min_cycle;Max_cycle;Signal;HPM_P1;HPM_P2
2021/12/09 00:07:53;;;;;;;;;;;;;;;;;;;;;
2021/12/09 00:19:01;;;;;;;;;;;;;;;;;;;;;
2021/12/09 00:22:09;;;;;;;;;;;;;;;;;;;;;
2021/12/09 00:36:13;;;;;;;11.13;8.60;;;4.10;99.90;;;;;;5011186;28;20220;-88
2021/12/09 00:39:53;;;;;;;9.87;8.73;;;4.20;99.90;;;;;;4999410;28;20199;-88
2021/12/09 01:04:05;;;;;;;8.87;7.83;;;4.10;99.90;;;;;;1217692;26;20279;-89
2021/12/09 01:10:52;;;;;;;8.70;7.80;;;4.30;99.90;;;;;;5029148;28;20719;-89
2021/12/09 01:31:50;;;;;;;;;;;;;;;;;;;;;
2021/12/09 01:59:16;;;;;;;8.00;5.83;;;3.80;99.90;;;;;;5014950;28;20205;-89
2021/12/09 02:09:35;;;;;;;7.83;6.37;;;3.80;99.90;;;;;;4925440;29;20280;-89
2021/12/09 02:16:19;;;;;;;9.03;6.00;;;3.70;99.90;;;;;;4924752;29;20212;-90
2021/12/09 02:26:42;;;;;;;;;;;;;;;;;;;;;
2021/12/09 02:29:44;;;;;;;;;;;;;;;;;;;;;
2021/12/09 02:40:48;;;;;;;;;;;;;;;;;;;;;
2021/12/09 02:50:04;;;;;;;;;;;;;;;;;;;;;
2021/12/09 02:53:41;;;;;;;;;;;;;;;;;;;;;
2021/12/09 03:07:57;;;;;;;8.20;6.30;;;3.10;99.90;;;;;;4850539;29;20299;-89
2021/12/09 03:28:56;;;;;;;;;;;;;;;;;;;;;
2021/12/09 03:42:41;;;;;;;;;;;;;;;;;;;;;
2021/12/09 04:32:40;;;;;;;9.80;6.13;;;3.10;99.90;;;;;;4976528;28;20217;-88
2021/12/09 04:35:51;;;;;;;12.27;6.33;;;2.90;99.90;;;;;;4963992;28;20217;-88
2021/12/09 04:54:06;;;;;;;13.43;6.13;;;2.70;99.90;;;;;;5094168;28;20230;-90
2021/12/09 05:12:04;;;;;;;;;;;;;;;;;;;;;
2021/12/09 05:25:47;;;;;;;10.87;6.53;;;2.20;99.90;;;;;;4945926;29;20333;-90
2021/12/09 05:28:54;;;;;;;;;;;;;;;;;;;;;
2021/12/09 05:32:16;;;;;;;9.17;6.23;;;2.20;99.90;;;;;;5003379;28;20281;-89
2021/12/09 05:39:14;;;;;;;10.33;6.93;;;2.10;99.90;;;;;;4930447;29;20207;-89
2021/12/09 05:45:47;;;;;;;;;;;;;;;;;;;;;
2021/12/09 06:07:49;;;;;;;;;;;;;;;;;;;;;
2021/12/09 06:58:12;;;;;;;;;;;;;;;;;;;;;
2021/12/09 07:01:30;;;;;;;13.23;8.57;;;2.50;99.90;;;;;;4974049;28;20793;-92
2021/12/09 07:04:29;;;;;;;13.40;9.13;;;2.40;99.90;;;;;;4951489;28;20261;-91
2021/12/09 07:07:27;;;;;;;13.80;9.57;;;2.50;99.90;;;;;;4969759;28;20281;-91
2021/12/09 07:09:55;;;;;;;14.77;8.80;;;2.50;99.90;;;;;;4966347;28;20774;-91
2021/12/09 07:12:28;;;;;;;14.73;9.33;;;2.50;99.90;;;;;;4969709;28;20227;-92
2021/12/09 07:15:30;;;;;;;16.40;10.17;;;2.50;99.90;;;;;;4960668;29;20194;-92
2021/12/09 07:18:25;;;;;;;17.27;9.60;;;2.60;99.90;;;;;;4975301;28;20198;-92
2021/12/09 07:20:59;;;;;;;9.07;8.17;;;2.60;99.90;;;;;;4971635;28;20233;-91
2021/12/09 07:23:55;;;;;;;12.17;8.33;;;2.60;99.90;;;;;;4967895;28;20258;-90
2021/12/09 07:26:46;;;;;;;10.87;8.93;;;2.70;99.90;;;;;;4967397;28;20200;-92
2021/12/09 07:29:46;;;;;;;;;;;;;;;;;;;;;
2021/12/09 07:35:26;;;;;;;13.80;9.30;;;2.60;99.90;;;;;;5152759;23;20230;-91
2021/12/09 07:38:08;;;;;;;15.57;9.73;;;2.60;99.90;;;;;;5086517;28;20262;-90
2021/12/09 07:40:42;;;;;;;13.07;9.17;;;2.50;99.90;;;;;;5091412;28;20266;-93
2021/12/09 07:43:17;;;;;;;13.73;9.23;;;2.50;99.90;;;;;;5072226;28;20203;-92
2021/12/09 07:45:58;;;;;;;14.20;9.33;;;2.50;99.90;;;;;;5051211;28;20643;-91
2021/12/09 07:48:40;;;;;;;14.47;9.20;;;2.60;99.90;;;;;;5052440;28;20195;-90
2021/12/09 07:51:13;;;;;;;14.40;9.07;;;2.60;99.90;;;;;;5080532;28;20203;-91
2021/12/09 07:53:45;;;;;;;13.93;8.60;;;2.80;99.90;;;;;;5071209;28;20192;-90
2021/12/09 07:56:18;;;;;;;11.07;7.63;;;2.90;99.90;;;;;;5050137;28;20208;-91
2021/12/09 07:58:54;;;;;;;9.90;7.63;;;2.90;99.90;;;;;;5061931;28;20199;-91
2021/12/09 08:01:29;;;;;;;13.30;8.30;;;2.90;99.90;;;;;;5070445;28;20210;-91
2021/12/09 08:09:16;;;;;;;11.40;7.30;;;3.10;99.90;;;;;;5117160;28;20195;-91
2021/12/09 08:11:48;;;;;;;8.60;7.33;;;3.10;99.90;;;;;;5090937;28;20206;-92
2021/12/09 08:14:31;;;;;;;15.27;8.20;;;3.10;99.90;;;;;;5088085;28;20186;-91
2021/12/09 08:20:10;;;;;;;15.83;8.37;;;3.00;99.90;;;;;;5106013;28;20591;-92
2021/12/09 08:22:57;;;;;;;11.27;8.67;;;3.00;99.90;;;;;;5098700;28;20214;-91
2021/12/09 08:28:45;;;;;;;14.03;8.93;;;3.00;99.90;;;;;;5101242;28;20182;-92
2021/12/09 08:33:53;;;;;;;14.97;9.07;;;3.10;99.90;;;;;;5101189;22;20262;-92
2021/12/09 08:36:48;;;;;;;16.63;9.27;;;3.00;99.90;;;;;;5075365;28;20187;-92
2021/12/09 08:39:27;;;;;;;15.33;8.80;;;2.90;99.90;;;;;;5079022;28;20259;-91
2021/12/09 08:42:05;;;;;;;12.33;8.73;;;3.00;99.90;;;;;;5074922;28;20219;-91
2021/12/09 08:44:49;;;;;;;12.33;8.77;;;3.00;99.90;;;;;;5082263;28;20590;-91
2021/12/09 08:47:33;;;;;;;13.50;9.13;;;2.90;99.90;;;;;;5082980;28;20212;-91
2021/12/09 08:50:23;;;;;;;10.37;7.87;;;2.90;99.90;;;;;;5088764;28;20210;-91
2021/12/09 08:53:23;;;;;;;12.60;8.10;;;3.00;99.90;;;;;;5194202;22;20231;-91
2021/12/09 08:55:59;;;;;;;13.17;8.83;;;3.10;99.90;;;;;;5069211;28;20190;-91
2021/12/09 08:59:03;;;;;;;12.40;9.43;;;3.10;99.90;;;;;;5064258;28;20199;-91
2021/12/09 09:04:28;;;;;;;10.87;8.03;;;3.10;99.90;;;;;;5085743;28;20223;-91
2021/12/09 09:07:01;;;;;;;12.83;8.10;;;3.10;99.90;;;;;;5060382;28;20187;-91
2021/12/09 09:10:29;;;;;;;13.17;8.30;;;3.20;99.90;;;;;;5062070;28;20199;-91
2021/12/09 09:13:14;;;;;;;12.23;8.70;;;3.10;99.90;;;;;;5154011;23;20247;-90
2021/12/09 09:15:52;;;;;;;12.73;7.77;;;3.00;99.90;;;;;;5060689;28;20211;-90
2021/12/09 09:18:28;;;;;;;9.50;8.00;;;3.10;99.90;;;;;;5063785;28;20270;-89
2021/12/09 09:20:55;;;;;;;12.47;8.33;;;3.10;99.90;;;;;;5062445;28;20203;-90
2021/12/09 09:23:30;;;;;;;11.27;7.57;;;3.10;99.90;;;;;;5068617;28;20195;-90
2021/12/09 09:25:57;;;;;;;11.40;7.37;;;3.20;99.90;;;;;;5079678;28;20187;-89
2021/12/09 09:28:30;;;;;;;11.47;7.77;;;3.30;99.90;;;;;;5052483;28;20598;-90
2021/12/09 09:31:14;;;;;;;11.67;8.13;;;3.30;99.90;;;;;;5060959;28;20191;-90
2021/12/09 09:33:43;;;;;;;11.67;7.13;;;3.20;99.90;;;;;;5082760;28;20187;-89
2021/12/09 09:36:10;;;;;;;9.17;6.67;;;3.30;99.90;;;;;;5079938;28;20253;-89
2021/12/09 09:38:36;;;;;;;7.57;6.80;;;3.30;99.90;;;;;;5046107;28;20196;-90
2021/12/09 09:41:32;;;;;;;9.67;7.13;;;3.30;99.90;;;;;;5063548;28;20220;-89
2021/12/09 09:44:29;;;;;;;11.03;7.70;;;3.30;99.90;;;;;;5049693;28;20208;-90
2021/12/09 09:47:03;;;;;;;11.13;7.87;;;3.20;99.90;;;;;;5053739;28;20184;-90
2021/12/09 09:49:30;;;;;;;11.00;8.60;;;3.30;99.90;;;;;;5076154;28;20203;-90
2021/12/09 09:52:05;;;;;;;10.10;7.43;;;3.40;99.90;;;;;;5065673;28;20208;-90
2021/12/09 09:54:32;;;;;;;12.00;8.77;;;3.40;99.90;;;;;;5069687;28;20271;-90
2021/12/09 09:57:28;;;;;;;13.53;8.77;;;3.50;99.90;;;;;;5067283;28;20406;-90
2021/12/09 09:59:59;;;;;;;8.93;7.30;;;3.40;99.90;;;;;;5079058;28;20334;-89
2021/12/09 10:02:34;;;;;;;14.13;7.87;;;3.40;99.90;;;;;;5062370;28;20281;-90
2021/12/09 10:05:22;;;;;;;11.13;7.20;;;3.30;99.90;;;;;;5041062;28;20266;-90
2021/12/09 10:08:23;;;;;;;9.33;6.63;;;3.30;99.90;;;;;;5062091;28;20202;-90
2021/12/09 10:10:53;;;;;;;11.23;6.37;;;3.30;99.90;;;;;;5052672;28;20214;-90
2021/12/09 10:13:31;;;;;;;11.53;6.10;;;3.30;99.90;;;;;;5077481;28;20199;-89
2021/12/09 10:16:28;;;;;;;7.80;6.17;;;3.40;99.90;;;;;;5079677;28;20214;-90
2021/12/09 10:19:15;;;;;;;9.93;6.73;;;3.40;99.90;;;;;;5083519;28;20252;-91
2021/12/09 10:21:49;;;;;;;11.73;5.53;;;3.40;99.90;;;;;;5072337;28;20245;-91
2021/12/09 10:24:16;;;;;;;13.57;7.03;;;3.50;99.90;;;;;;5075966;28;20198;-90
2021/12/09 10:27:05;;;;;;;10.33;6.73;;;3.30;99.90;;;;;;5059003;28;20199;-91
2021/12/09 10:29:43;;;;;;;11.57;6.67;;;3.30;99.90;;;;;;5046981;28;20192;-91
2021/12/09 10:32:22;;;;;;;8.90;5.97;;;3.40;99.90;;;;;;5054961;28;20207;-91
2021/12/09 10:34:52;;;;;;;8.93;6.00;;;3.40;99.90;;;;;;5062048;28;20270;-91
2021/12/09 10:38:18;;;;;;;9.53;5.97;;;3.50;99.90;;;;;;5090599;28;20200;-89
2021/12/09 10:40:50;;;;;;;9.97;5.97;;;3.40;99.90;;;;;;5008841;28;20312;-90
2021/12/09 10:43:18;;;;;;;7.50;6.17;;;3.30;99.90;;;;;;5068501;28;20245;-90
2021/12/09 10:46:13;;;;;;;8.30;5.60;;;3.50;99.90;;;;;;5056255;28;20200;-91
2021/12/09 10:51:55;;;;;;;8.83;5.73;;;3.50;99.90;;;;;;5077547;28;20250;-90
2021/12/09 10:54:52;;;;;;;10.43;5.77;;;3.50;99.90;;;;;;5063166;28;20195;-90
2021/12/09 11:01:02;;;;;;;9.07;5.97;;;3.50;99.90;;;;;;5082475;28;20302;-90
2021/12/09 11:04:23;;;;;;;8.60;5.53;;;3.50;99.90;;;;;;5069846;28;20192;-90
2021/12/09 11:07:06;;;;;;;8.40;5.20;;;3.50;99.90;;;;;;5043611;28;20220;-92
2021/12/09 11:09:42;;;;;;;8.13;5.50;;;3.40;99.90;;;;;;5081720;28;20286;-91
2021/12/09 11:12:59;;;;;;;10.57;5.40;;;3.50;99.90;;;;;;5049352;28;20211;-91
2021/12/09 11:15:48;;;;;;;10.10;5.43;;;3.40;99.90;;;;;;4985375;28;20241;-91
2021/12/09 11:18:49;;;;;;;8.20;4.77;;;3.40;99.90;;;;;;4976544;28;20220;-91
2021/12/09 11:21:28;;;;;;;11.97;5.17;;;3.50;99.90;;;;;;5071246;28;20227;-89
2021/12/09 11:24:26;;;;;;;7.73;4.83;;;3.40;99.90;;;;;;5061202;28;20184;-89
2021/12/09 11:27:22;;;;;;;7.33;4.47;;;3.50;99.90;;;;;;5027594;28;20205;-90
2021/12/09 11:37:08;;;;;;;10.10;4.70;;;3.60;99.90;;;;;;4945105;29;20239;-90
2021/12/09 11:42:58;;;;;;;7.30;4.60;;;4.00;99.90;;;;;;4974034;28;20237;-91
2021/12/09 11:46:11;;;;;;;;;;;;;;;;;;;;;
2021/12/09 11:48:38;;;;;;;10.53;4.53;;;4.10;99.90;;;;;;5055143;28;20206;-90
2021/12/09 11:51:07;;;;;;;6.50;3.57;;;4.20;99.90;;;;;;5061690;28;20224;-90
2021/12/09 11:53:38;;;;;;;7.10;3.90;;;4.30;98.60;;;;;;5076158;28;20196;-90
2021/12/09 12:15:28;;;;;;;11.83;6.27;;;4.50;96.80;;;;;;5066369;28;20199;-90
2021/12/09 12:21:17;;;;;;;8.60;3.43;;;4.60;96.50;;;;;;5060706;28;20219;-89
2021/12/09 12:24:15;;;;;;;7.73;3.50;;;4.70;96.30;;;;;;5070734;28;20194;-92
2021/12/09 12:29:49;;;;;;;10.23;4.37;;;4.50;98.80;;;;;;5082161;28;20264;-90
2021/12/09 12:40:52;;;;;;;7.50;3.67;;;4.80;96.30;;;;;;5086325;28;20206;-89
2021/12/09 12:43:45;;;;;;;13.73;4.07;;;4.90;96.20;;;;;;5073754;28;20195;-90
2021/12/09 12:46:57;;;;;;;8.17;4.00;;;4.80;96.90;;;;;;5055771;28;20276;-91
2021/12/09 12:49:35;;;;;;;10.70;4.03;;;4.90;96.80;;;;;;5070661;28;20188;-89
2021/12/09 13:03:21;;;;;;;6.83;4.10;;;4.70;96.60;;;;;;5058770;22;20384;-89
2021/12/09 13:09:38;;;;;;;8.07;3.47;;;4.70;97.20;;;;;;5047665;28;20192;-87
2021/12/09 13:13:01;;;;;;;9.57;3.77;;;4.80;96.70;;;;;;5032089;28;20243;-87
2021/12/09 13:23:02;;;;;;;;;;;;;;;;;;;;;
2021/12/09 13:26:50;;;;;;;10.63;3.97;;;5.10;97.60;;;;;;5037008;28;20248;-88
2021/12/09 13:33:58;;;;;;;;;;;;;;;;;;;;;
2021/12/09 14:26:10;;;;;;;;;;;;;;;;;;;;;
2021/12/09 14:29:13;;;;;;;5.63;2.97;;;5.10;97.40;;;;;;4895295;29;20204;-88
2021/12/09 14:45:18;;;;;;;11.40;3.83;;;5.00;98.40;;;;;;4958674;28;20263;-89
2021/12/09 15:06:24;;;;;;;13.47;4.93;;;4.70;99.90;;;;;;4983851;28;20205;-88
2021/12/09 15:09:20;;;;;;;9.77;4.50;;;4.70;99.90;;;;;;5010980;28;20632;-88
2021/12/09 15:12:27;;;;;;;10.23;4.30;;;4.60;99.90;;;;;;5014689;28;20235;-88
2021/12/09 15:15:10;;;;;;;10.83;5.33;;;4.60;99.90;;;;;;5024071;28;20218;-89
2021/12/09 15:17:54;;;;;;;12.97;5.07;;;4.60;99.90;;;;;;5062016;28;20200;-88
2021/12/09 15:20:42;;;;;;;10.90;4.77;;;4.60;99.90;;;;;;5059964;28;20187;-88
2021/12/09 15:23:41;;;;;;;8.90;3.80;;;4.70;99.90;;;;;;5058380;28;20204;-89
2021/12/09 15:26:21;;;;;;;11.67;4.80;;;4.70;99.40;;;;;;5061837;28;20184;-89
2021/12/09 15:29:09;;;;;;;11.47;4.63;;;4.70;99.90;;;;;;5059264;28;20247;-89
2021/12/09 15:31:41;;;;;;;14.07;4.83;;;4.60;99.90;;;;;;5061445;28;20204;-86
2021/12/09 15:34:16;;;;;;;12.63;4.70;;;4.60;99.90;;;;;;5054413;28;20204;-87
2021/12/09 15:36:58;;;;;;;12.13;5.87;;;4.60;99.90;;;;;;5059571;28;20210;-86
2021/12/09 15:39:33;;;;;;;8.60;5.10;;;4.70;99.90;;;;;;5076673;28;20810;-87
2021/12/09 15:42:04;;;;;;;9.43;5.07;;;4.80;99.90;;;;;;5059968;28;20216;-87
2021/12/09 15:44:37;;;;;;;13.00;5.37;;;4.70;99.90;;;;;;5042347;28;20184;-88
2021/12/09 15:47:19;;;;;;;13.53;6.27;;;4.70;99.90;;;;;;5078464;28;20557;-87
2021/12/09 15:49:53;;;;;;;13.60;5.17;;;4.60;99.90;;;;;;5056953;28;20199;-86
2021/12/09 15:52:31;;;;;;;9.83;5.23;;;4.60;99.90;;;;;;5078415;28;20216;-87
2021/12/09 15:55:02;;;;;;;9.47;5.07;;;4.60;99.90;;;;;;5063045;28;20709;-87
2021/12/09 15:57:32;;;;;;;15.73;5.33;;;4.60;99.90;;;;;;5075653;28;20234;-88
2021/12/09 15:59:58;;;;;;;11.10;5.40;;;4.60;99.90;;;;;;5062045;28;20241;-88
2021/12/09 16:02:29;;;;;;;10.10;4.63;;;4.60;99.90;;;;;;5061205;28;20219;-87
2021/12/09 16:04:55;;;;;;;13.80;5.57;;;4.80;99.90;;;;;;5061329;28;20203;-87
2021/12/09 16:07:21;;;;;;;7.57;5.50;;;4.60;99.90;;;;;;5060547;28;20184;-88
2021/12/09 16:09:48;;;;;;;9.67;4.67;;;4.50;99.90;;;;;;5060054;28;20195;-87
2021/12/09 16:12:17;;;;;;;12.97;5.50;;;4.50;99.90;;;;;;5060790;28;20210;-87
2021/12/09 16:14:51;;;;;;;14.37;5.27;;;4.60;99.90;;;;;;5061415;28;20224;-87
2021/12/09 16:17:21;;;;;;;11.07;5.60;;;4.50;99.90;;;;;;5063394;28;20233;-89
2021/12/09 16:19:51;;;;;;;10.87;5.50;;;4.50;99.90;;;;;;5061848;28;20259;-88
2021/12/09 16:24:49;;;;;;;9.63;6.67;;;4.60;99.90;;;;;;5063101;28;20199;-89
2021/12/09 16:27:18;;;;;;;12.00;6.40;;;4.70;99.90;;;;;;5061757;28;20195;-90
2021/12/09 16:29:44;;;;;;;11.53;5.60;;;4.70;99.90;;;;;;5063662;28;20180;-89
2021/12/09 16:32:12;;;;;;;9.70;6.13;;;4.90;99.90;;;;;;5063285;28;20219;-88
2021/12/09 16:34:39;;;;;;;12.03;5.53;;;4.80;99.90;;;;;;5059769;28;20213;-86
2021/12/09 16:37:06;;;;;;;14.27;6.00;;;4.90;99.90;;;;;;5064331;28;20235;-88
2021/12/09 16:39:34;;;;;;;13.83;5.53;;;4.80;99.90;;;;;;5059183;28;20217;-88
2021/12/09 16:42:02;;;;;;;7.73;5.30;;;4.80;99.90;;;;;;5059693;28;20216;-86
2021/12/09 16:44:28;;;;;;;12.70;5.47;;;4.60;99.90;;;;;;5076132;28;20230;-88
2021/12/09 16:46:54;;;;;;;12.97;5.73;;;4.60;99.90;;;;;;5057473;28;20188;-86
2021/12/09 16:49:22;;;;;;;11.23;6.00;;;4.70;99.90;;;;;;5045268;28;20697;-87
2021/12/09 16:51:49;;;;;;;10.03;5.73;;;4.50;99.90;;;;;;5061683;28;20249;-86
2021/12/09 16:54:23;;;;;;;9.30;5.47;;;4.60;99.90;;;;;;5062387;28;20267;-88
2021/12/09 16:57:10;;;;;;;11.97;8.33;;;4.70;99.90;;;;;;5063183;28;20204;-88
2021/12/09 16:59:36;;;;;;;14.77;5.97;;;4.90;99.90;;;;;;5064415;28;20203;-88
2021/12/09 17:02:06;;;;;;;10.80;4.73;;;4.90;99.90;;;;;;5066287;28;20846;-88
2021/12/09 17:04:33;;;;;;;12.57;5.57;;;4.70;99.90;;;;;;5060317;28;20185;-86
2021/12/09 17:07:00;;;;;;;9.67;4.67;;;4.60;99.90;;;;;;5082506;28;20202;-88
2021/12/09 17:09:27;;;;;;;10.13;4.20;;;4.70;99.90;;;;;;5059353;28;20223;-86
2021/12/09 17:11:54;;;;;;;9.60;4.43;;;4.80;99.90;;;;;;5059698;28;20222;-86
2021/12/09 17:14:22;;;;;;;10.63;4.90;;;4.60;99.90;;;;;;5060590;28;20691;-86
2021/12/09 17:16:49;;;;;;;9.47;4.53;;;4.40;99.90;;;;;;5061409;28;20196;-89
2021/12/09 17:19:17;;;;;;;7.13;4.70;;;4.50;99.90;;;;;;5070475;28;20191;-86
2021/12/09 17:21:44;;;;;;;9.13;4.67;;;4.40;99.90;;;;;;5068183;28;20227;-88
2021/12/09 17:24:11;;;;;;;12.10;4.90;;;4.40;99.90;;;;;;5059163;28;20183;-89
2021/12/09 17:26:40;;;;;;;9.30;5.40;;;4.40;99.90;;;;;;5073574;28;20215;-87
2021/12/09 17:29:08;;;;;;;12.27;6.23;;;4.40;99.90;;;;;;5079877;28;20627;-87
2021/12/09 17:31:44;;;;;;;11.27;6.20;;;4.40;99.90;;;;;;5047834;28;20224;-87
2021/12/09 17:34:12;;;;;;;11.80;6.23;;;4.40;99.90;;;;;;5078766;28;20195;-86
2021/12/09 17:36:40;;;;;;;9.37;4.83;;;4.40;99.90;;;;;;5064072;28;20224;-89
2021/12/09 17:39:13;;;;;;;9.10;4.40;;;4.40;99.90;;;;;;5064806;28;20196;-89
2021/12/09 17:41:48;;;;;;;8.57;5.07;;;4.30;99.90;;;;;;5078117;28;20227;-88
2021/12/09 17:44:15;;;;;;;9.37;4.53;;;4.20;99.90;;;;;;5064454;28;20196;-88
2021/12/09 17:46:45;;;;;;;12.00;4.60;;;4.30;99.90;;;;;;5046206;28;20196;-89
2021/12/09 17:49:13;;;;;;;11.33;4.40;;;4.20;99.90;;;;;;5047113;28;20211;-86
2021/12/09 17:51:51;;;;;;;9.67;4.23;;;4.20;99.90;;;;;;5079538;28;20212;-85
2021/12/09 17:54:18;;;;;;;10.60;4.80;;;4.10;99.90;;;;;;5046777;28;20219;-87
2021/12/09 17:56:45;;;;;;;7.13;4.07;;;4.30;99.90;;;;;;5079691;28;20702;-88
2021/12/09 17:59:11;;;;;;;6.27;4.10;;;4.20;99.90;;;;;;5043488;28;20196;-85
2021/12/09 18:01:37;;;;;;;8.33;4.03;;;4.20;99.90;;;;;;5063495;28;20223;-86
2021/12/09 18:04:04;;;;;;;7.97;4.53;;;4.20;99.90;;;;;;5065674;28;20240;-85
2021/12/09 18:06:30;;;;;;;12.67;4.40;;;4.20;99.90;;;;;;5039502;28;20208;-86
2021/12/09 18:08:58;;;;;;;8.17;4.03;;;4.20;99.90;;;;;;5051802;28;20212;-88
2021/12/09 18:11:27;;;;;;;8.77;3.90;;;4.20;99.90;;;;;;5061407;28;20235;-86
2021/12/09 18:13:55;;;;;;;9.40;4.03;;;4.20;99.90;;;;;;5061846;28;20196;-86
2021/12/09 18:16:24;;;;;;;8.73;3.43;;;4.30;99.90;;;;;;5078424;28;20196;-86
2021/12/09 18:18:50;;;;;;;8.77;4.60;;;4.20;99.90;;;;;;5029403;28;20188;-86
2021/12/09 18:21:15;;;;;;;8.20;3.63;;;4.30;99.90;;;;;;5045835;28;20222;-86
2021/12/09 18:23:41;;;;;;;5.33;3.67;;;4.30;99.90;;;;;;5044618;28;20226;-86
2021/12/09 18:26:08;;;;;;;8.20;3.60;;;4.30;99.90;;;;;;5053997;28;20184;-86
2021/12/09 18:28:33;;;;;;;6.93;3.63;;;4.40;99.90;;;;;;5040896;28;20204;-86
2021/12/09 18:31:00;;;;;;;6.47;3.70;;;4.40;99.90;;;;;;5057838;28;20192;-86
2021/12/09 18:33:26;;;;;;;6.63;3.23;;;4.40;99.90;;;;;;5058407;28;20210;-86
2021/12/09 18:35:54;;;;;;;6.13;3.23;;;4.20;99.90;;;;;;5055421;28;20200;-86
2021/12/09 18:38:21;;;;;;;7.10;3.63;;;4.20;99.90;;;;;;5075429;28;20226;-86
2021/12/09 18:40:50;;;;;;;9.30;3.60;;;4.10;99.90;;;;;;5058454;28;20196;-86
2021/12/09 18:43:17;;;;;;;8.27;3.20;;;4.10;99.90;;;;;;5055624;28;20188;-86
2021/12/09 18:45:43;;;;;;;7.70;3.37;;;4.30;99.90;;;;;;5072510;28;20180;-86
2021/12/09 18:48:11;;;;;;;8.77;3.43;;;4.30;99.90;;;;;;5072524;28;20287;-86
2021/12/09 18:50:40;;;;;;;6.70;3.50;;;4.30;99.90;;;;;;5045310;28;20216;-87
2021/12/09 18:53:09;;;;;;;8.63;3.27;;;4.30;99.90;;;;;;5056510;28;20212;-86
2021/12/09 18:55:35;;;;;;;6.07;3.07;;;4.40;99.90;;;;;;5074040;28;20254;-86
2021/12/09 18:58:04;;;;;;;7.30;2.93;;;4.20;99.90;;;;;;5040520;28;20264;-86
2021/12/09 19:00:31;;;;;;;4.93;2.73;;;4.10;99.90;;;;;;5072904;28;20192;-87
2021/12/09 19:02:57;;;;;;;4.80;2.90;;;4.10;99.90;;;;;;5057845;28;20220;-86
2021/12/09 19:05:26;;;;;;;4.90;3.40;;;4.10;99.90;;;;;;5048960;28;20172;-86
2021/12/09 19:07:53;;;;;;;9.77;3.83;;;4.10;99.90;;;;;;5063974;28;20197;-87
2021/12/09 19:10:19;;;;;;;5.53;2.90;;;4.30;99.90;;;;;;5041091;28;20287;-86
2021/12/09 19:12:46;;;;;;;12.63;4.03;;;4.20;99.90;;;;;;5058421;28;20212;-87
2021/12/09 19:15:14;;;;;;;6.10;3.00;;;4.40;99.90;;;;;;5041715;28;20219;-87
2021/12/09 19:17:46;;;;;;;4.57;2.53;;;4.30;99.90;;;;;;5056981;28;20192;-87
2021/12/09 19:20:18;;;;;;;5.13;3.03;;;4.40;99.90;;;;;;5058101;28;20645;-87
2021/12/09 19:22:46;;;;;;;7.77;3.00;;;4.30;99.90;;;;;;5056726;28;20212;-86
2021/12/09 19:25:13;;;;;;;9.63;3.13;;;4.40;99.90;;;;;;5039713;28;20184;-86
2021/12/09 19:27:43;;;;;;;6.67;3.43;;;4.30;99.90;;;;;;5058737;28;20181;-87
2021/12/09 19:30:12;;;;;;;10.63;3.33;;;4.20;99.90;;;;;;5056194;28;20280;-87
2021/12/09 19:32:40;;;;;;;8.37;3.20;;;4.30;99.90;;;;;;5056847;28;20253;-88
2021/12/09 19:35:09;;;;;;;7.07;2.53;;;4.40;99.90;;;;;;5037159;28;20542;-87
2021/12/09 19:37:36;;;;;;;4.40;2.77;;;4.40;99.90;;;;;;5055361;28;20184;-87
2021/12/09 19:40:06;;;;;;;5.43;2.90;;;4.30;99.50;;;;;;5057550;28;20192;-87
2021/12/09 19:42:33;;;;;;;5.23;2.80;;;4.20;99.90;;;;;;5070468;28;20231;-87
2021/12/09 19:45:00;;;;;;;5.63;2.80;;;4.20;99.90;;;;;;5054735;28;20635;-87
2021/12/09 19:47:27;;;;;;;8.47;2.83;;;4.30;99.90;;;;;;5056062;28;20207;-87
2021/12/09 19:49:54;;;;;;;5.63;3.10;;;4.20;99.90;;;;;;5056779;28;20657;-88
2021/12/09 19:52:21;;;;;;;5.27;2.57;;;4.20;99.90;;;;;;5071714;28;20226;-88
2021/12/09 19:54:48;;;;;;;3.90;2.40;;;4.20;99.90;;;;;;5057244;28;20218;-87
2021/12/09 19:57:16;;;;;;;4.63;3.27;;;4.30;99.90;;;;;;5058571;28;20788;-87
2021/12/09 19:59:45;;;;;;;5.80;3.03;;;4.30;99.90;;;;;;5041832;28;20557;-87
2021/12/09 20:02:12;;;;;;;6.57;2.67;;;4.30;99.30;;;;;;5039520;28;20220;-87
2021/12/09 20:04:39;;;;;;;5.17;2.43;;;4.20;99.90;;;;;;5058703;28;20229;-88
2021/12/09 20:07:05;;;;;;;6.27;3.00;;;4.20;99.90;;;;;;5060180;28;20184;-87
2021/12/09 20:09:31;;;;;;;6.57;2.87;;;4.20;99.90;;;;;;5054174;28;20207;-87
2021/12/09 20:11:58;;;;;;;4.93;3.00;;;4.30;99.30;;;;;;5061381;28;20230;-87
2021/12/09 20:14:24;;;;;;;4.83;2.80;;;4.20;99.90;;;;;;5045992;28;20272;-87
2021/12/09 20:16:51;;;;;;;6.03;2.73;;;4.10;99.60;;;;;;5061316;28;20199;-87
2021/12/09 20:19:18;;;;;;;6.00;2.87;;;4.10;99.60;;;;;;5052542;28;20243;-87
2021/12/09 20:21:44;;;;;;;7.67;2.73;;;4.10;99.90;;;;;;5051015;28;20238;-87
2021/12/09 20:24:10;;;;;;;6.77;2.93;;;4.20;98.90;;;;;;5040443;28;20192;-88
2021/12/09 20:26:37;;;;;;;5.53;3.00;;;4.10;99.00;;;;;;5054233;28;20195;-87
2021/12/09 20:29:05;;;;;;;5.80;3.10;;;4.20;99.50;;;;;;5057857;28;20190;-87
2021/12/09 20:31:32;;;;;;;4.97;3.13;;;4.20;98.60;;;;;;5059349;28;20224;-88
2021/12/09 20:33:59;;;;;;;5.63;2.80;;;4.30;97.30;;;;;;5054350;28;20203;-87
2021/12/09 20:36:26;;;;;;;4.10;2.60;;;4.20;97.80;;;;;;5041930;28;20205;-88
2021/12/09 20:38:54;;;;;;;6.37;3.00;;;4.20;98.80;;;;;;5044376;28;20250;-87
2021/12/09 20:41:20;;;;;;;6.50;3.03;;;4.10;99.20;;;;;;5064705;28;20227;-87
2021/12/09 20:43:48;;;;;;;6.07;2.80;;;4.20;98.30;;;;;;5056709;28;20192;-87
2021/12/09 20:46:15;;;;;;;5.17;3.30;;;4.10;97.80;;;;;;5040639;28;20249;-87
2021/12/09 20:48:42;;;;;;;7.67;3.60;;;4.20;98.00;;;;;;5058389;28;20286;-88
2021/12/09 20:51:09;;;;;;;3.77;2.73;;;4.30;98.20;;;;;;5054533;28;20227;-88
2021/12/09 20:53:34;;;;;;;6.73;3.40;;;4.20;98.00;;;;;;5040236;28;20196;-87
2021/12/09 20:56:01;;;;;;;6.33;3.33;;;4.20;98.20;;;;;;5059607;28;20203;-86
2021/12/09 20:58:28;;;;;;;3.70;2.67;;;4.30;97.00;;;;;;5061260;28;20193;-86
2021/12/09 21:00:55;;;;;;;5.73;2.90;;;4.30;97.00;;;;;;5057592;28;20188;-88
2021/12/09 21:03:23;;;;;;;4.83;3.20;;;4.20;98.10;;;;;;5057479;28;20199;-86
2021/12/09 21:05:51;;;;;;;7.90;3.20;;;4.20;96.90;;;;;;5055689;28;24749;-88
2021/12/09 21:08:19;;;;;;;6.77;3.20;;;4.20;97.10;;;;;;5043131;28;20272;-86
2021/12/09 21:10:49;;;;;;;8.73;2.70;;;4.30;97.50;;;;;;5061301;28;20188;-88
2021/12/09 21:13:17;;;;;;;5.47;2.57;;;4.30;97.70;;;;;;5063564;28;20208;-85
2021/12/09 21:15:48;;;;;;;5.17;3.03;;;4.40;96.70;;;;;;5045621;28;20287;-86
2021/12/09 21:18:16;;;;;;;5.20;2.67;;;4.30;97.40;;;;;;5055828;28;20189;-88
2021/12/09 21:20:44;;;;;;;4.90;3.23;;;4.20;97.30;;;;;;5056693;28;20188;-85
2021/12/09 21:23:11;;;;;;;7.43;3.40;;;4.20;97.20;;;;;;5056402;28;20261;-88
2021/12/09 21:25:39;;;;;;;5.50;3.00;;;4.20;97.00;;;;;;5059032;28;20656;-86
2021/12/09 21:28:06;;;;;;;6.97;3.27;;;4.20;96.20;;;;;;5057419;28;20196;-86
2021/12/09 21:30:32;;;;;;;6.47;2.73;;;4.30;96.30;;;;;;5058384;28;20278;-86
2021/12/09 21:32:59;;;;;;;4.73;3.20;;;4.30;96.20;;;;;;5073324;28;20498;-87
2021/12/09 21:35:28;;;;;;;5.70;2.80;;;4.30;96.80;;;;;;5042275;28;20215;-88
2021/12/09 21:37:56;;;;;;;4.93;2.67;;;4.30;95.60;;;;;;5058321;28;20200;-86
2021/12/09 21:40:27;;;;;;;7.20;3.23;;;4.40;95.80;;;;;;5051004;28;20188;-89
2021/12/09 21:42:55;;;;;;;6.73;3.60;;;4.30;96.60;;;;;;5055116;28;20324;-88
2021/12/09 21:45:26;;;;;;;7.40;3.47;;;4.30;95.10;;;;;;5041853;28;20200;-88
2021/12/09 21:47:53;;;;;;;8.33;3.20;;;4.40;95.60;;;;;;5053834;28;20546;-88
2021/12/09 21:50:20;;;;;;;6.17;2.70;;;4.40;95.00;;;;;;5060508;28;20253;-88
2021/12/09 21:52:45;;;;;;;8.50;3.27;;;4.40;94.90;;;;;;5055286;28;20220;-89
2021/12/09 21:55:12;;;;;;;5.70;3.13;;;4.40;95.20;;;;;;5042241;28;20215;-87
2021/12/09 21:57:38;;;;;;;5.73;3.10;;;4.30;95.60;;;;;;5057204;28;20223;-86
2021/12/09 22:00:08;;;;;;;6.13;3.47;;;4.30;95.40;;;;;;5069424;28;20204;-87
2021/12/09 22:02:34;;;;;;;6.00;3.00;;;4.30;95.20;;;;;;5061196;28;20377;-88
2021/12/09 22:05:03;;;;;;;5.93;2.83;;;4.20;95.30;;;;;;5057508;28;20192;-87
2021/12/09 22:07:31;;;;;;;7.33;3.20;;;4.30;95.30;;;;;;5059607;28;20295;-88
2021/12/09 22:10:00;;;;;;;3.70;2.70;;;4.30;95.00;;;;;;5067488;28;20177;-87
2021/12/09 22:12:27;;;;;;;5.33;3.07;;;4.30;94.70;;;;;;5073638;28;20219;-88
2021/12/09 22:14:53;;;;;;;6.37;2.83;;;4.30;95.20;;;;;;5059290;28;20608;-87
2021/12/09 22:17:25;;;;;;;6.80;2.90;;;4.30;95.30;;;;;;5059086;28;20199;-87
2021/12/09 22:19:57;;;;;;;7.37;3.03;;;4.20;95.10;;;;;;5059125;28;20200;-87
2021/12/09 22:22:25;;;;;;;5.10;2.90;;;4.30;94.70;;;;;;5052122;28;20226;-86
2021/12/09 22:24:51;;;;;;;5.47;3.03;;;4.20;95.10;;;;;;5039123;28;20227;-87
2021/12/09 22:27:17;;;;;;;8.57;3.37;;;4.20;95.20;;;;;;5058060;28;20192;-87
2021/12/09 22:29:43;;;;;;;4.80;3.00;;;4.20;95.50;;;;;;5059450;28;20227;-88
2021/12/09 22:32:09;;;;;;;5.83;3.40;;;4.20;95.00;;;;;;5050054;28;20244;-87
2021/12/09 22:34:34;;;;;;;6.87;2.90;;;4.20;94.70;;;;;;5033636;28;20205;-87
2021/12/09 22:37:00;;;;;;;5.23;3.20;;;4.20;94.50;;;;;;5021228;28;20238;-87
2021/12/09 22:39:27;;;;;;;7.77;3.00;;;4.20;94.70;;;;;;5036973;28;20204;-87
2021/12/09 22:41:54;;;;;;;4.20;2.40;;;4.30;93.60;;;;;;5070501;28;20216;-87